KMKG/MKG METAR and TAF weather

Enter ICAO airport designator
Station Type Date Time Source
KMKG METAR 2019/10/15 07:55 UTC NOAA

KMKG 150755Z AUTO 12004KT 10SM CLR 02/M01 A3006 RMK AO2 SLP183 T00171006


Station Type Date Time Source
KMKG Decoded METAR 2019/10/15 07:55 UTC NOAA

MUSKEGON COUNTY AIRPORT, MI, United States (KMKG) 43-10N 086-14W 191M
Oct 15, 2019 - 03:55 AM EDT / 2019.10.15 0755 UTC
Wind: from the ESE (120 degrees) at 5 MPH (4 KT):0
Visibility: 10 mile(s):0
Sky conditions: clear
Temperature: 35.1 F (1.7 C)
Dew Point: 30.9 F (-0.6 C)
Relative Humidity: 84%
Pressure (altimeter): 30.06 in. Hg (1017 hPa)
ob: KMKG 150755Z AUTO 12004KT 10SM CLR 02/M01 A3006 RMK AO2 SLP183 T00171006
cycle: 8

Station Type Date Time Source
KMKG TAF 2019/10/15 06:42 UTC NOAA

TAF KMKG 150540Z 1506/1606 18006KT P6SM FEW250
FM151500 15013G22KT P6SM VCSH BKN100
FM152000 19015G29KT 6SM -SHRA BR OVC035
FM152300 23013G22KT 6SM -SHRA BR BKN016
FM160200 28017KT P6SM VCSH BKN022

Example: see airport list